Time;durP1;ratioP1;P1;durP2;ratioP2;P2;SDS_P1;SDS_P2;PMS_P1;PMS_P2;Temp;Humidity;BMP_temperature;BMP_pressure;BME280_temperature;BME280_humidity;BME280_pressure;Samples;Min_cycle;Max_cycle;Signal;HPM_P1;HPM_P2
2021/06/24 00:01:05;;;;;;;12.93;7.03;;;14.30;99.90;;;;;;4177633;28;20059;-77
2021/06/24 00:03:05;;;;;;;11.10;7.30;;;14.20;99.90;;;;;;4179359;28;20569;-79
2021/06/24 00:05:07;;;;;;;13.57;6.85;;;14.20;99.90;;;;;;4178412;28;20104;-78
2021/06/24 00:07:08;;;;;;;10.32;7.60;;;14.10;99.90;;;;;;4179410;28;20527;-76
2021/06/24 00:09:11;;;;;;;12.70;6.85;;;14.10;99.90;;;;;;4178002;28;20033;-78
2021/06/24 00:11:12;;;;;;;11.63;6.65;;;14.10;99.90;;;;;;4178587;28;20033;-77
2021/06/24 00:13:14;;;;;;;10.25;6.97;;;14.10;99.90;;;;;;4178488;28;20053;-77
2021/06/24 00:15:15;;;;;;;9.77;7.18;;;14.10;99.90;;;;;;4178595;28;20039;-78
2021/06/24 00:17:15;;;;;;;10.60;7.57;;;14.10;99.90;;;;;;4178250;28;20538;-77
2021/06/24 00:19:16;;;;;;;13.25;7.30;;;14.10;99.90;;;;;;4178340;28;20068;-77
2021/06/24 00:21:17;;;;;;;10.63;7.82;;;14.10;99.90;;;;;;4178256;28;20049;-77
2021/06/24 00:23:19;;;;;;;13.90;7.05;;;14.10;99.90;;;;;;4177246;28;20028;-78
2021/06/24 00:25:20;;;;;;;13.10;7.70;;;14.00;99.90;;;;;;4176888;28;20037;-77
2021/06/24 00:27:20;;;;;;;14.77;9.15;;;14.00;99.90;;;;;;4176243;28;20025;-78
2021/06/24 00:29:21;;;;;;;8.38;6.63;;;14.00;99.90;;;;;;4176958;28;20063;-77
2021/06/24 00:31:22;;;;;;;14.02;7.15;;;14.00;99.90;;;;;;4177421;28;20121;-77
2021/06/24 00:33:23;;;;;;;11.23;7.90;;;14.00;99.90;;;;;;4178263;28;20066;-77
2021/06/24 00:35:24;;;;;;;10.68;7.13;;;14.00;99.90;;;;;;4179095;28;20113;-77
2021/06/24 00:37:25;;;;;;;9.23;7.68;;;14.10;99.90;;;;;;4179678;28;20036;-78
2021/06/24 00:39:25;;;;;;;9.98;7.15;;;14.10;99.90;;;;;;4178010;28;20496;-77
2021/06/24 00:41:27;;;;;;;10.48;7.68;;;14.10;99.90;;;;;;4179357;28;20440;-78
2021/06/24 00:43:28;;;;;;;9.02;7.03;;;14.10;99.90;;;;;;4179358;28;20083;-76
2021/06/24 00:45:29;;;;;;;12.30;7.65;;;14.10;99.90;;;;;;4177815;28;20116;-78
2021/06/24 00:47:30;;;;;;;11.07;8.00;;;14.00;99.90;;;;;;4177788;28;20060;-77
2021/06/24 00:49:31;;;;;;;11.73;7.80;;;14.00;99.90;;;;;;4172515;28;20034;-78
2021/06/24 00:51:31;;;;;;;14.45;8.15;;;13.90;99.90;;;;;;4185950;28;20044;-77
2021/06/24 00:53:32;;;;;;;16.13;8.65;;;13.90;99.90;;;;;;4172504;28;20488;-77
2021/06/24 00:55:40;;;;;;;9.93;7.47;;;14.00;99.90;;;;;;4174637;28;20033;-77
2021/06/24 00:57:41;;;;;;;11.25;7.18;;;13.90;99.90;;;;;;4165231;28;20033;-77
2021/06/24 00:59:42;;;;;;;14.65;7.15;;;14.00;99.90;;;;;;4179120;28;20455;-77
2021/06/24 01:01:43;;;;;;;12.05;7.35;;;13.90;99.90;;;;;;4180200;28;20079;-77
2021/06/24 01:03:43;;;;;;;11.10;7.47;;;13.90;99.90;;;;;;4164354;28;20037;-77
2021/06/24 01:05:46;;;;;;;12.07;7.30;;;13.90;99.90;;;;;;4179088;28;20098;-77
2021/06/24 01:07:47;;;;;;;10.05;7.75;;;13.90;99.90;;;;;;4180923;28;20025;-77
2021/06/24 01:09:47;;;;;;;7.68;6.93;;;13.90;99.90;;;;;;4180739;28;20075;-76
2021/06/24 01:11:49;;;;;;;10.27;6.65;;;13.90;99.90;;;;;;4180826;28;20463;-77
2021/06/24 01:13:50;;;;;;;15.15;6.90;;;13.90;99.90;;;;;;4180421;28;20033;-76
2021/06/24 01:15:52;;;;;;;9.70;7.15;;;13.90;99.90;;;;;;4181897;28;20403;-75
2021/06/24 01:17:55;;;;;;;7.25;6.40;;;13.80;99.90;;;;;;4163829;28;20049;-77
2021/06/24 01:19:55;;;;;;;7.22;6.53;;;13.80;99.90;;;;;;4180440;28;20140;-76
2021/06/24 01:21:57;;;;;;;8.32;6.20;;;13.80;99.90;;;;;;4180493;28;20033;-76
2021/06/24 01:23:57;;;;;;;17.20;6.55;;;13.80;99.90;;;;;;4180431;28;20028;-76
2021/06/24 01:25:58;;;;;;;13.32;7.53;;;13.80;99.90;;;;;;4181154;28;20100;-77
2021/06/24 01:28:07;;;;;;;10.27;6.22;;;13.90;99.90;;;;;;4180385;28;20080;-77
2021/06/24 01:30:09;;;;;;;9.00;6.93;;;13.90;99.90;;;;;;4180360;28;20025;-77
2021/06/24 01:32:10;;;;;;;15.05;7.85;;;13.80;99.90;;;;;;4166230;28;20485;-78
2021/06/24 01:34:12;;;;;;;9.18;6.72;;;13.80;99.90;;;;;;4180509;28;20043;-77
2021/06/24 01:36:13;;;;;;;13.38;7.30;;;13.80;99.90;;;;;;4180517;28;20439;-77
2021/06/24 01:38:14;;;;;;;14.38;7.32;;;13.80;99.90;;;;;;4181684;28;20075;-77
2021/06/24 01:40:16;;;;;;;10.25;7.65;;;13.80;99.90;;;;;;4181366;28;20037;-78
2021/06/24 01:42:16;;;;;;;10.48;7.28;;;13.80;99.90;;;;;;4181500;28;20046;-77
2021/06/24 01:44:28;;;;;;;10.80;7.60;;;13.80;99.90;;;;;;4181486;28;20017;-77
2021/06/24 01:46:29;;;;;;;10.00;6.80;;;13.70;99.90;;;;;;4173172;28;20025;-77
2021/06/24 01:48:30;;;;;;;12.23;6.97;;;13.70;99.90;;;;;;4175114;28;20040;-77
2021/06/24 01:50:31;;;;;;;12.00;7.85;;;13.80;99.90;;;;;;4180094;28;20470;-77
2021/06/24 01:52:31;;;;;;;12.35;7.45;;;13.80;99.90;;;;;;4169824;28;20038;-77
2021/06/24 01:54:32;;;;;;;10.63;6.95;;;13.80;99.90;;;;;;4180036;28;20392;-77
2021/06/24 01:56:37;;;;;;;10.20;7.25;;;13.70;99.90;;;;;;4181604;28;20429;-78
2021/06/24 01:58:38;;;;;;;8.93;6.88;;;13.70;99.90;;;;;;4180136;28;20129;-77
2021/06/24 02:00:44;;;;;;;9.60;7.40;;;13.80;99.90;;;;;;4179941;28;20063;-78
2021/06/24 02:02:45;;;;;;;10.07;6.85;;;13.90;99.90;;;;;;4179454;28;20059;-79
2021/06/24 02:04:46;;;;;;;13.27;6.93;;;13.90;99.90;;;;;;4179504;28;20053;-79
2021/06/24 02:06:47;;;;;;;13.02;7.65;;;13.90;99.90;;;;;;4179849;28;20037;-78
2021/06/24 02:08:49;;;;;;;13.88;8.48;;;13.80;99.90;;;;;;4181361;28;20051;-78
2021/06/24 02:10:50;;;;;;;11.23;7.13;;;13.70;99.90;;;;;;4179305;28;20504;-78
2021/06/24 02:12:52;;;;;;;9.30;6.70;;;13.70;99.90;;;;;;4180525;28;20029;-77
2021/06/24 02:14:54;;;;;;;9.57;6.53;;;13.70;99.90;;;;;;4179777;28;20399;-78
2021/06/24 02:16:55;;;;;;;12.85;7.72;;;13.70;99.90;;;;;;4179097;28;20055;-78
2021/06/24 02:18:55;;;;;;;8.25;6.50;;;13.70;99.90;;;;;;4180603;28;20124;-78
2021/06/24 02:20:56;;;;;;;9.25;7.38;;;13.70;99.90;;;;;;4179235;28;20036;-77
2021/06/24 02:22:56;;;;;;;12.07;6.93;;;13.70;99.90;;;;;;4180892;28;20116;-77
2021/06/24 02:24:58;;;;;;;9.52;6.60;;;13.80;99.90;;;;;;4179930;28;20045;-78
2021/06/24 02:26:59;;;;;;;11.15;7.32;;;13.80;99.90;;;;;;4179705;28;20032;-78
2021/06/24 02:28:59;;;;;;;10.27;6.95;;;13.70;99.90;;;;;;4181024;28;20040;-78
2021/06/24 02:31:00;;;;;;;12.30;7.80;;;13.60;99.90;;;;;;4179349;28;20037;-78
2021/06/24 02:33:01;;;;;;;11.73;7.43;;;13.60;99.90;;;;;;4180283;28;20037;-78
2021/06/24 02:35:08;;;;;;;10.82;7.45;;;13.50;99.90;;;;;;4179362;28;20025;-77
2021/06/24 02:37:08;;;;;;;9.95;7.75;;;13.50;99.90;;;;;;4180561;28;20029;-78
2021/06/24 02:39:09;;;;;;;12.60;8.80;;;13.40;99.90;;;;;;4179504;28;20033;-77
2021/06/24 02:41:10;;;;;;;12.18;8.23;;;13.40;99.90;;;;;;4178819;28;20576;-76
2021/06/24 02:43:10;;;;;;;13.45;7.95;;;13.40;99.90;;;;;;4178555;28;20041;-77
2021/06/24 02:45:12;;;;;;;9.35;8.23;;;13.50;99.90;;;;;;4177855;28;20040;-77
2021/06/24 02:47:12;;;;;;;8.98;6.90;;;13.40;99.90;;;;;;4177888;28;21688;-77
2021/06/24 02:49:13;;;;;;;11.82;7.90;;;13.40;99.90;;;;;;4179798;28;20049;-78
2021/06/24 02:51:13;;;;;;;12.52;7.18;;;13.40;99.90;;;;;;4177900;28;20112;-77
2021/06/24 02:53:14;;;;;;;11.18;7.47;;;13.40;99.90;;;;;;4177761;28;20531;-78
2021/06/24 02:55:15;;;;;;;13.35;7.22;;;13.60;99.90;;;;;;4179165;28;20037;-78
2021/06/24 02:57:16;;;;;;;9.05;7.18;;;13.60;99.90;;;;;;4179661;28;20025;-78
2021/06/24 02:59:16;;;;;;;14.15;7.80;;;13.50;99.90;;;;;;4178064;28;20116;-78
2021/06/24 03:01:23;;;;;;;11.68;8.30;;;13.50;99.90;;;;;;4179475;28;20045;-78
2021/06/24 03:03:24;;;;;;;10.45;7.22;;;13.50;99.90;;;;;;4179279;28;20033;-77
2021/06/24 03:05:24;;;;;;;11.80;7.63;;;13.50;99.90;;;;;;4177680;28;20745;-77
2021/06/24 03:07:25;;;;;;;14.07;7.70;;;13.50;99.90;;;;;;4177808;28;20068;-77
2021/06/24 03:09:26;;;;;;;11.57;8.25;;;13.50;99.90;;;;;;4180314;28;20063;-78
2021/06/24 03:11:26;;;;;;;14.05;7.68;;;13.50;99.90;;;;;;4179191;28;20044;-78
2021/06/24 03:13:28;;;;;;;12.15;7.05;;;13.50;99.90;;;;;;4178825;28;20033;-77
2021/06/24 03:15:32;;;;;;;10.45;7.43;;;13.40;99.90;;;;;;4180439;28;20041;-78
2021/06/24 03:17:37;;;;;;;13.10;7.65;;;13.40;99.90;;;;;;4179171;28;20053;-77
2021/06/24 03:19:39;;;;;;;11.82;7.50;;;13.40;99.90;;;;;;4179758;28;20036;-77
2021/06/24 03:21:40;;;;;;;11.43;7.20;;;13.40;99.90;;;;;;4178626;28;20558;-78
2021/06/24 03:23:40;;;;;;;15.00;8.15;;;13.40;99.90;;;;;;4179761;28;20029;-77
2021/06/24 03:25:41;;;;;;;10.70;6.75;;;13.40;99.90;;;;;;4178351;28;20452;-76
2021/06/24 03:27:42;;;;;;;12.75;7.25;;;13.40;99.90;;;;;;4178544;28;20029;-76
2021/06/24 03:29:44;;;;;;;7.72;6.82;;;13.50;99.90;;;;;;4178686;28;20032;-76
2021/06/24 03:31:45;;;;;;;14.70;8.35;;;13.50;99.90;;;;;;4178370;28;20024;-78
2021/06/24 03:33:46;;;;;;;12.15;8.35;;;13.40;99.90;;;;;;4179589;28;20125;-78
2021/06/24 03:35:49;;;;;;;15.73;8.32;;;13.30;99.90;;;;;;4178633;28;20033;-77
2021/06/24 03:37:50;;;;;;;14.15;8.00;;;13.30;99.90;;;;;;4180018;28;20029;-77
2021/06/24 03:39:50;;;;;;;11.52;8.20;;;13.30;99.90;;;;;;4179352;28;20553;-78
2021/06/24 03:41:51;;;;;;;11.98;8.02;;;13.30;99.90;;;;;;4178543;28;20095;-78
2021/06/24 03:43:56;;;;;;;11.07;8.13;;;13.30;99.90;;;;;;4179580;28;20078;-77
2021/06/24 03:45:56;;;;;;;14.23;8.05;;;13.30;99.90;;;;;;4179742;28;20369;-77
2021/06/24 03:47:57;;;;;;;16.83;7.90;;;13.30;99.90;;;;;;4179283;28;20114;-77
2021/06/24 03:49:57;;;;;;;9.85;7.35;;;13.30;99.90;;;;;;4178182;28;20784;-77
2021/06/24 03:51:58;;;;;;;13.40;7.53;;;13.40;99.90;;;;;;4176688;28;20052;-76
2021/06/24 03:53:59;;;;;;;11.15;7.57;;;13.40;99.90;;;;;;4153618;28;20071;-77
2021/06/24 03:56:00;;;;;;;12.27;7.57;;;13.40;99.90;;;;;;4178237;28;20036;-76
2021/06/24 03:58:00;;;;;;;8.68;6.95;;;13.40;99.90;;;;;;4178184;28;20451;-76
2021/06/24 04:00:02;;;;;;;12.75;7.97;;;13.40;99.90;;;;;;4178614;28;20041;-79
2021/06/24 04:02:04;;;;;;;10.38;7.03;;;13.50;99.90;;;;;;4178639;28;20040;-77
2021/06/24 04:04:05;;;;;;;9.35;7.15;;;13.40;99.90;;;;;;4177256;28;20492;-76
2021/06/24 04:06:06;;;;;;;12.20;8.32;;;13.40;99.90;;;;;;4177693;28;20094;-77
2021/06/24 04:08:08;;;;;;;12.75;7.93;;;13.40;99.90;;;;;;4178294;28;20025;-77
2021/06/24 04:10:09;;;;;;;14.88;7.78;;;13.40;99.90;;;;;;4177363;28;20025;-75
2021/06/24 04:12:10;;;;;;;15.02;8.20;;;13.40;99.90;;;;;;4179572;28;20032;-75
2021/06/24 04:14:10;;;;;;;10.57;7.68;;;13.40;99.90;;;;;;4176432;28;20041;-77
2021/06/24 04:16:12;;;;;;;8.90;7.63;;;13.40;99.90;;;;;;4170205;28;20367;-77
2021/06/24 04:18:15;;;;;;;13.77;8.18;;;13.40;99.90;;;;;;4166064;28;20049;-77
2021/06/24 04:20:16;;;;;;;8.50;7.53;;;13.40;99.90;;;;;;4170513;28;20360;-77
2021/06/24 04:22:16;;;;;;;12.30;8.38;;;13.40;99.90;;;;;;4167757;28;20028;-77
2021/06/24 04:24:17;;;;;;;9.90;8.60;;;13.30;99.90;;;;;;4167823;28;20033;-77
2021/06/24 04:26:18;;;;;;;11.48;9.07;;;13.30;99.90;;;;;;4165654;28;20037;-77
2021/06/24 04:28:18;;;;;;;15.18;9.05;;;13.30;99.90;;;;;;4162782;28;20380;-77
2021/06/24 04:30:21;;;;;;;15.48;9.75;;;13.30;99.90;;;;;;4165038;28;20036;-77
2021/06/24 04:32:21;;;;;;;12.07;9.03;;;13.40;99.90;;;;;;4163428;28;20037;-77
2021/06/24 04:34:22;;;;;;;13.07;8.65;;;13.40;99.90;;;;;;4161467;28;20352;-77
2021/06/24 04:36:23;;;;;;;11.30;7.90;;;13.50;99.90;;;;;;4172731;28;20125;-78
2021/06/24 04:38:24;;;;;;;8.57;7.22;;;13.60;99.90;;;;;;4182470;28;20040;-78
2021/06/24 04:40:25;;;;;;;10.90;7.68;;;13.70;99.90;;;;;;4180602;28;20602;-77
2021/06/24 04:42:28;;;;;;;13.15;8.15;;;13.70;99.90;;;;;;4182373;28;20033;-77
2021/06/24 04:44:28;;;;;;;10.88;8.13;;;13.80;99.90;;;;;;4182606;28;20087;-77
2021/06/24 04:46:29;;;;;;;12.55;7.88;;;13.80;99.90;;;;;;4181057;28;20484;-77
2021/06/24 04:48:29;;;;;;;10.68;7.75;;;13.90;99.90;;;;;;4182117;28;20033;-76
2021/06/24 04:50:31;;;;;;;14.05;8.02;;;13.90;99.90;;;;;;4181161;28;20427;-78
2021/06/24 04:52:31;;;;;;;12.25;7.68;;;13.90;99.90;;;;;;4182085;28;20116;-76
2021/06/24 04:54:32;;;;;;;9.82;7.25;;;14.00;99.90;;;;;;4181084;28;20044;-77
2021/06/24 04:56:33;;;;;;;10.70;8.05;;;14.10;99.90;;;;;;4181143;28;20140;-76
2021/06/24 04:58:34;;;;;;;13.05;7.00;;;14.10;99.90;;;;;;4182583;28;20033;-76
2021/06/24 05:00:36;;;;;;;15.57;7.95;;;14.20;99.90;;;;;;4180658;28;20610;-76
2021/06/24 05:02:37;;;;;;;11.80;7.78;;;14.30;99.90;;;;;;4178975;28;20499;-78
2021/06/24 05:04:38;;;;;;;9.95;8.45;;;14.30;99.90;;;;;;4176025;28;20029;-77
2021/06/24 05:06:40;;;;;;;13.60;7.70;;;14.30;99.90;;;;;;4176925;28;20507;-78
2021/06/24 05:08:41;;;;;;;13.00;7.13;;;14.40;99.90;;;;;;4179008;28;20630;-77
2021/06/24 05:10:44;;;;;;;12.10;8.18;;;14.40;99.90;;;;;;4180227;28;20066;-77
2021/06/24 05:12:45;;;;;;;10.50;7.18;;;14.40;99.90;;;;;;4172284;28;20124;-77
2021/06/24 05:14:45;;;;;;;13.90;7.72;;;14.40;99.90;;;;;;4180689;28;20049;-78
2021/06/24 05:16:46;;;;;;;11.38;7.45;;;14.40;99.90;;;;;;4181729;28;20515;-79
2021/06/24 05:18:48;;;;;;;10.35;7.35;;;14.40;99.90;;;;;;4180405;28;20037;-80
2021/06/24 05:20:49;;;;;;;10.50;7.38;;;14.40;99.90;;;;;;4180373;28;20155;-78
2021/06/24 05:22:50;;;;;;;9.90;7.60;;;14.40;99.90;;;;;;4181980;28;20052;-78
2021/06/24 05:24:50;;;;;;;14.32;7.72;;;14.40;99.90;;;;;;4180360;28;20029;-78
2021/06/24 05:26:51;;;;;;;11.13;7.25;;;14.40;99.90;;;;;;4181967;28;20472;-78
2021/06/24 05:28:52;;;;;;;12.90;8.30;;;14.50;99.90;;;;;;4181472;28;20033;-78
2021/06/24 05:30:53;;;;;;;10.93;7.38;;;14.50;99.90;;;;;;4180475;28;20037;-77
2021/06/24 05:32:53;;;;;;;13.20;8.05;;;14.60;99.90;;;;;;4181732;28;20376;-78
2021/06/24 05:34:54;;;;;;;14.32;7.55;;;14.60;99.90;;;;;;4180320;28;20458;-78
2021/06/24 05:36:55;;;;;;;12.07;7.25;;;14.90;99.90;;;;;;4179469;28;20037;-77
2021/06/24 05:38:55;;;;;;;13.60;7.07;;;15.00;99.90;;;;;;4181576;28;20037;-78
2021/06/24 05:40:57;;;;;;;13.70;7.97;;;15.10;99.90;;;;;;4180094;28;20025;-78
2021/06/24 05:42:57;;;;;;;10.07;7.13;;;15.10;99.90;;;;;;4180098;28;20049;-78
2021/06/24 05:44:58;;;;;;;10.52;7.28;;;15.10;99.90;;;;;;4181666;28;20021;-78
2021/06/24 05:47:00;;;;;;;12.75;7.55;;;15.10;99.90;;;;;;4180037;28;20138;-79
2021/06/24 05:49:01;;;;;;;12.95;8.00;;;15.30;99.90;;;;;;4184165;28;20103;-78
2021/06/24 05:51:02;;;;;;;7.68;6.75;;;15.30;99.90;;;;;;4186178;28;20025;-80
2021/06/24 05:53:03;;;;;;;11.32;6.93;;;15.40;99.90;;;;;;4176187;28;20076;-79
2021/06/24 05:55:05;;;;;;;10.00;6.97;;;15.40;99.90;;;;;;4181258;28;20038;-78
2021/06/24 05:57:06;;;;;;;13.73;8.23;;;15.40;99.90;;;;;;4179658;28;20155;-78
2021/06/24 05:59:07;;;;;;;7.85;7.05;;;15.40;99.90;;;;;;4180075;28;20268;-78
2021/06/24 06:01:08;;;;;;;8.98;7.70;;;15.50;99.90;;;;;;4179857;28;20033;-76
2021/06/24 06:03:09;;;;;;;14.45;7.82;;;15.60;99.90;;;;;;4180004;28;20452;-76
2021/06/24 06:05:11;;;;;;;7.15;6.45;;;15.70;99.90;;;;;;4177161;28;20033;-77
2021/06/24 06:07:11;;;;;;;9.98;8.45;;;15.80;99.90;;;;;;4177596;28;20040;-77
2021/06/24 06:09:12;;;;;;;13.35;6.93;;;15.90;99.90;;;;;;4167732;28;20388;-77
2021/06/24 06:11:13;;;;;;;9.63;6.65;;;15.80;99.90;;;;;;4169989;28;20021;-76
2021/06/24 06:13:14;;;;;;;10.73;6.68;;;15.90;99.90;;;;;;4181018;28;20068;-77
2021/06/24 06:15:15;;;;;;;12.00;7.70;;;15.90;99.90;;;;;;4178847;28;20029;-78
2021/06/24 06:17:17;;;;;;;12.18;7.15;;;16.10;99.90;;;;;;4169707;28;20045;-76
2021/06/24 06:19:17;;;;;;;13.32;8.00;;;16.30;99.90;;;;;;4182885;28;20364;-77
2021/06/24 06:21:18;;;;;;;13.93;7.70;;;16.30;99.90;;;;;;4179150;28;20040;-77
2021/06/24 06:23:21;;;;;;;9.80;6.63;;;16.30;99.90;;;;;;4180907;28;20112;-77
2021/06/24 06:25:22;;;;;;;9.90;7.53;;;16.30;99.90;;;;;;4179447;28;20033;-78
2021/06/24 06:27:22;;;;;;;11.52;7.40;;;16.40;99.90;;;;;;4162648;28;20160;-76
2021/06/24 06:29:23;;;;;;;11.20;6.93;;;16.50;99.90;;;;;;4180712;28;20395;-76
2021/06/24 06:31:25;;;;;;;14.15;6.78;;;16.50;99.90;;;;;;4179594;28;20090;-76
2021/06/24 06:33:26;;;;;;;11.43;6.88;;;16.70;99.90;;;;;;4179553;28;20044;-76
2021/06/24 06:35:27;;;;;;;9.73;7.07;;;16.70;99.90;;;;;;4179273;28;20033;-76
2021/06/24 06:37:28;;;;;;;9.98;6.70;;;16.80;99.90;;;;;;4178623;28;20047;-76
2021/06/24 06:39:29;;;;;;;9.23;7.07;;;16.80;99.90;;;;;;4180384;28;20118;-76
2021/06/24 06:41:29;;;;;;;9.90;7.40;;;16.80;99.90;;;;;;4173180;28;20480;-76
2021/06/24 06:43:30;;;;;;;12.38;8.27;;;16.80;99.90;;;;;;4178915;28;20025;-77
2021/06/24 06:45:32;;;;;;;16.13;7.63;;;16.90;99.90;;;;;;4166223;28;20121;-75
2021/06/24 06:47:33;;;;;;;10.63;7.28;;;16.80;99.90;;;;;;4164706;28;20029;-75
2021/06/24 06:49:34;;;;;;;13.90;8.27;;;16.80;99.90;;;;;;4173021;28;20092;-76
2021/06/24 06:51:34;;;;;;;12.25;7.72;;;16.70;99.90;;;;;;4175838;28;20063;-75
2021/06/24 06:53:35;;;;;;;12.43;7.57;;;16.70;99.90;;;;;;4175112;28;20078;-75
2021/06/24 06:55:38;;;;;;;14.30;7.30;;;17.00;99.90;;;;;;4176821;28;20468;-76
2021/06/24 06:57:39;;;;;;;11.25;6.82;;;17.00;99.90;;;;;;4168455;28;20484;-76
2021/06/24 06:59:41;;;;;;;11.90;6.90;;;17.30;99.90;;;;;;4177943;28;20115;-76
2021/06/24 07:01:42;;;;;;;8.57;6.15;;;17.40;99.90;;;;;;4165540;28;20412;-76
2021/06/24 07:03:42;;;;;;;9.35;6.10;;;17.40;99.90;;;;;;4173333;28;20037;-77
2021/06/24 07:05:43;;;;;;;9.73;7.07;;;17.30;99.90;;;;;;4163418;28;20087;-78
2021/06/24 07:07:44;;;;;;;11.60;6.57;;;17.30;99.90;;;;;;4168212;28;20155;-77
2021/06/24 07:09:45;;;;;;;9.07;5.22;;;17.30;99.90;;;;;;4170038;28;20097;-76
2021/06/24 07:11:45;;;;;;;11.05;6.25;;;17.40;99.90;;;;;;4166584;28;20029;-78
2021/06/24 07:13:46;;;;;;;5.80;5.22;;;17.30;99.90;;;;;;4178483;28;20476;-76
2021/06/24 07:15:49;;;;;;;9.55;5.95;;;17.20;99.90;;;;;;4177095;28;20093;-77
2021/06/24 07:17:51;;;;;;;7.93;5.68;;;17.20;99.90;;;;;;4163604;28;20090;-77
2021/06/24 07:19:51;;;;;;;6.80;5.78;;;17.40;99.90;;;;;;4170335;28;20170;-76
2021/06/24 07:21:52;;;;;;;8.40;6.03;;;17.50;99.90;;;;;;4174404;28;20468;-76
2021/06/24 07:23:53;;;;;;;7.05;6.35;;;17.60;99.90;;;;;;4178168;28;20055;-76
2021/06/24 07:25:53;;;;;;;9.05;5.10;;;17.60;99.90;;;;;;4179395;28;20627;-76
2021/06/24 07:27:54;;;;;;;9.48;6.57;;;17.70;99.90;;;;;;4178421;28;20358;-76
2021/06/24 07:29:55;;;;;;;7.55;5.18;;;18.00;99.90;;;;;;4179902;28;20030;-76
2021/06/24 07:31:57;;;;;;;6.03;4.75;;;18.10;99.90;;;;;;4178717;28;20029;-76
2021/06/24 07:33:58;;;;;;;6.55;5.53;;;18.40;99.90;;;;;;4173170;28;20395;-76
2021/06/24 07:35:59;;;;;;;9.52;5.10;;;18.70;99.90;;;;;;4178239;28;20138;-76
2021/06/24 07:37:59;;;;;;;10.52;5.40;;;18.70;99.90;;;;;;4161353;28;20038;-76
2021/06/24 07:40:00;;;;;;;11.10;5.32;;;18.60;99.90;;;;;;4177845;28;20032;-75
2021/06/24 07:42:01;;;;;;;9.93;5.97;;;18.60;99.90;;;;;;4179433;28;20143;-77
2021/06/24 07:44:01;;;;;;;8.63;5.60;;;18.60;99.90;;;;;;4177149;28;20039;-78
2021/06/24 07:46:03;;;;;;;8.18;5.75;;;18.70;99.90;;;;;;4177692;28;20027;-75
2021/06/24 07:48:06;;;;;;;9.63;5.57;;;19.00;99.90;;;;;;4178331;28;20032;-74
2021/06/24 07:50:07;;;;;;;10.30;4.70;;;19.20;99.90;;;;;;4175208;28;20067;-74
2021/06/24 07:52:08;;;;;;;8.13;5.18;;;19.20;99.90;;;;;;4171955;28;20500;-74
2021/06/24 07:54:09;;;;;;;8.50;4.93;;;19.20;99.90;;;;;;4170286;28;20166;-75
2021/06/24 07:56:10;;;;;;;8.15;4.68;;;19.20;99.90;;;;;;4169186;28;20428;-75
2021/06/24 07:58:12;;;;;;;9.70;6.53;;;19.30;99.90;;;;;;4175729;28;20562;-74
2021/06/24 08:00:13;;;;;;;7.15;5.35;;;19.50;99.90;;;;;;4172221;28;20112;-74
2021/06/24 08:02:14;;;;;;;5.97;4.50;;;19.70;99.90;;;;;;4172282;28;20024;-78
2021/06/24 08:04:15;;;;;;;7.75;5.30;;;20.00;99.90;;;;;;4157773;28;20463;-77
2021/06/24 08:06:16;;;;;;;9.65;5.75;;;20.30;99.90;;;;;;4180736;28;20041;-76
2021/06/24 08:08:16;;;;;;;6.90;4.80;;;20.40;99.90;;;;;;4174513;28;20383;-77
2021/06/24 08:10:18;;;;;;;5.88;4.95;;;20.80;99.90;;;;;;4176907;28;20372;-77
2021/06/24 08:12:19;;;;;;;13.18;4.63;;;21.00;99.90;;;;;;4167156;28;20033;-76
2021/06/24 08:14:21;;;;;;;8.15;5.15;;;21.00;99.90;;;;;;4174170;28;20052;-75
2021/06/24 08:16:21;;;;;;;8.90;5.10;;;21.00;99.90;;;;;;4176928;28;20091;-76
2021/06/24 08:18:23;;;;;;;8.57;5.00;;;21.00;99.90;;;;;;4180371;28;20033;-75
2021/06/24 08:20:24;;;;;;;8.57;5.43;;;21.10;99.90;;;;;;4171330;28;20455;-78
2021/06/24 08:22:25;;;;;;;6.03;4.93;;;21.10;99.90;;;;;;4170618;28;20032;-77
2021/06/24 08:24:27;;;;;;;8.35;4.95;;;21.10;99.90;;;;;;4177391;28;20067;-76
2021/06/24 08:26:28;;;;;;;7.82;5.40;;;20.90;99.90;;;;;;4177739;28;20072;-77
2021/06/24 08:28:29;;;;;;;6.10;5.05;;;20.80;99.90;;;;;;4170976;28;20033;-78
2021/06/24 08:30:30;;;;;;;6.22;5.07;;;20.80;99.90;;;;;;4180357;28;20064;-77
2021/06/24 08:32:30;;;;;;;7.32;5.82;;;20.80;99.90;;;;;;4169197;28;20033;-77
2021/06/24 08:34:33;;;;;;;7.50;4.80;;;21.00;99.90;;;;;;4174389;28;20049;-78
2021/06/24 08:36:34;;;;;;;10.57;4.97;;;20.50;99.90;;;;;;4172590;28;20029;-77
2021/06/24 08:38:36;;;;;;;7.90;5.20;;;20.50;99.90;;;;;;4172407;28;20084;-77
2021/06/24 08:40:39;;;;;;;8.32;5.00;;;20.70;99.90;;;;;;4173669;28;20539;-78
2021/06/24 08:42:41;;;;;;;11.63;6.45;;;20.50;99.90;;;;;;4171753;28;20029;-78
2021/06/24 08:44:42;;;;;;;7.80;4.57;;;20.50;99.90;;;;;;4177853;28;20041;-78
2021/06/24 08:46:46;;;;;;;6.15;4.75;;;20.50;99.90;;;;;;4176087;28;20395;-79
2021/06/24 08:48:48;;;;;;;10.45;5.38;;;20.50;99.90;;;;;;4170789;28;20053;-78
2021/06/24 08:50:51;;;;;;;8.40;5.07;;;20.20;99.90;;;;;;4173324;28;20586;-78
2021/06/24 08:52:54;;;;;;;6.10;4.80;;;20.20;99.90;;;;;;4179263;28;20423;-77
2021/06/24 08:54:55;;;;;;;;;;;20.10;99.90;;;;;;4166956;28;20383;-78
2021/06/24 08:56:59;;;;;;;8.38;5.28;;;20.00;99.90;;;;;;4173306;28;19992;-78
2021/06/24 08:58:59;;;;;;;6.38;4.57;;;20.00;99.90;;;;;;4172032;28;20038;-78
2021/06/24 09:01:00;;;;;;;9.77;5.30;;;20.30;99.90;;;;;;4172651;28;20078;-77
2021/06/24 09:03:14;;;;;;;7.70;5.28;;;20.50;99.90;;;;;;4181216;28;20083;-79
2021/06/24 09:05:16;;;;;;;10.52;5.30;;;20.30;99.90;;;;;;4169344;28;20029;-77
2021/06/24 09:07:21;;;;;;;9.45;5.78;;;20.50;99.90;;;;;;4169644;28;20195;-78
2021/06/24 09:09:33;;;;;;;11.82;5.68;;;20.50;99.90;;;;;;4185814;28;20063;-78
2021/06/24 09:11:35;;;;;;;6.65;5.65;;;20.50;99.90;;;;;;4185255;28;20055;-78
2021/06/24 09:13:36;;;;;;;8.40;5.40;;;20.70;99.90;;;;;;4178123;28;20064;-79
2021/06/24 09:15:38;;;;;;;11.65;6.35;;;20.60;99.90;;;;;;4174119;28;20090;-78
2021/06/24 09:17:43;;;;;;;9.65;5.53;;;20.50;99.90;;;;;;4171367;28;20400;-78
2021/06/24 09:19:44;;;;;;;7.57;5.68;;;20.50;99.90;;;;;;4180349;28;20033;-77
2021/06/24 09:21:48;;;;;;;8.05;5.72;;;20.50;99.90;;;;;;4169667;28;20038;-78
2021/06/24 09:23:51;;;;;;;6.72;5.50;;;20.60;99.90;;;;;;4167787;28;20029;-78
2021/06/24 09:26:12;;;;;;;7.65;5.50;;;20.60;99.90;;;;;;4169326;28;20038;-77
2021/06/24 09:28:14;;;;;;;9.40;6.40;;;20.40;99.90;;;;;;4168368;28;20093;-78
2021/06/24 09:30:15;;;;;;;11.73;5.95;;;20.30;99.90;;;;;;4175888;28;20033;-77
2021/06/24 09:32:31;;;;;;;11.80;6.18;;;20.10;99.90;;;;;;4171094;28;20628;-77
2021/06/24 09:34:32;;;;;;;9.43;6.07;;;20.00;99.90;;;;;;4172220;28;20048;-78
2021/06/24 09:36:40;;;;;;;8.70;6.15;;;19.90;99.90;;;;;;4178089;28;20025;-79
2021/06/24 09:38:42;;;;;;;11.35;5.78;;;19.90;99.90;;;;;;4173499;28;20029;-77
2021/06/24 09:40:45;;;;;;;9.63;5.95;;;19.70;99.90;;;;;;4179507;28;20096;-77
2021/06/24 09:42:46;;;;;;;12.02;6.75;;;19.60;99.90;;;;;;4180692;28;20068;-76
2021/06/24 09:44:48;;;;;;;8.23;6.63;;;19.80;99.90;;;;;;4181420;28;20059;-77
2021/06/24 09:46:49;;;;;;;9.30;6.70;;;19.90;99.90;;;;;;4177917;28;20033;-77
2021/06/24 09:48:53;;;;;;;12.13;7.30;;;19.70;99.90;;;;;;4175527;28;20033;-77
2021/06/24 09:51:07;;;;;;;9.02;6.85;;;19.50;99.90;;;;;;4168788;28;20063;-76
2021/06/24 09:53:11;;;;;;;8.27;7.05;;;19.30;99.90;;;;;;4164887;28;20087;-77
2021/06/24 09:55:14;;;;;;;9.77;6.63;;;19.30;99.90;;;;;;4177988;28;20036;-76
2021/06/24 09:57:24;;;;;;;8.57;6.32;;;19.30;99.90;;;;;;4174477;28;20022;-76
2021/06/24 09:59:39;;;;;;;9.85;7.75;;;19.20;99.90;;;;;;4167573;28;20037;-76
2021/06/24 10:01:43;;;;;;;9.23;6.53;;;19.00;99.90;;;;;;4171883;28;20033;-77
2021/06/24 10:03:46;;;;;;;10.60;7.05;;;19.00;99.90;;;;;;4175778;28;20056;-77
2021/06/24 10:05:48;;;;;;;11.52;7.25;;;19.20;99.90;;;;;;4168689;28;20361;-77
2021/06/24 10:07:49;;;;;;;9.90;7.18;;;19.20;99.90;;;;;;4176270;28;20044;-76
2021/06/24 10:09:50;;;;;;;10.98;6.82;;;19.10;99.90;;;;;;4174876;28;20380;-76
2021/06/24 10:11:52;;;;;;;11.77;7.32;;;19.20;99.90;;;;;;4172811;28;20037;-76
2021/06/24 10:13:53;;;;;;;7.07;6.33;;;19.30;99.90;;;;;;4166942;28;20029;-76
2021/06/24 10:15:56;;;;;;;9.73;7.07;;;19.30;99.90;;;;;;4165293;28;20022;-76
2021/06/24 10:17:57;;;;;;;7.97;7.18;;;19.40;99.90;;;;;;4169324;28;20040;-77
2021/06/24 10:19:58;;;;;;;8.85;7.32;;;19.50;99.90;;;;;;4179259;28;20033;-77
2021/06/24 10:22:19;;;;;;;8.60;6.47;;;19.40;99.90;;;;;;4171180;28;20037;-76
2021/06/24 10:24:26;;;;;;;7.85;6.78;;;19.50;99.90;;;;;;4179848;28;20021;-75
2021/06/24 10:26:29;;;;;;;8.95;7.03;;;19.80;99.90;;;;;;4178396;28;20037;-77
2021/06/24 10:28:30;;;;;;;10.38;7.18;;;20.10;99.90;;;;;;4180545;28;20025;-76